SLOR

Details ICAO SLOR
Name JUAN MENDOZA
Region Bolivia
Timezone America/La_Paz (UTC-4.0)
Plans Departing 2
Arriving 7
Stats Elevation 12,146 ft / 3,702 m (AMSL)
Location -17.962969° -67.074859°
Runways 2
Magnetic Variation 8.460° W
Sunrise 2017-12-11 09:47:34 UTC / 2017-12-11 05:47:34 Local
Sunset 2017-12-11 22:58:37 UTC / 2017-12-11 18:58:37 Local
Advertisement - Login to hide

Runways

ID Width Length Bearing (true) Bearing (mag) Surface Threshold Offset Overrun Length
09 120 ft / 37 m 6,115 ft / 1,864 m 93.25° 101.71° Dirt 0 ft / 0 m 0 ft / 0 m
18 75 ft / 23 m 8,115 ft / 2,473 m 182.32° 190.78° Asphalt 0 ft / 0 m 200 ft / 61 m
27 120 ft / 37 m 6,115 ft / 1,864 m 273.25° 281.71° Dirt 0 ft / 0 m 0 ft / 0 m
36 75 ft / 23 m 8,115 ft / 2,473 m 2.32° 10.78° Asphalt 0 ft / 0 m 170 ft / 52 m

Map

Weather


0- 5 10 15 20 25 30 35+ Temperature / ° C

Clouds and Precipitation
Forecast for 2017-12-11 18:00 UTC. Updated 20 minutes ago

Ground ~20,000 ft ~40,000 ft Winds

METAR

SLOR 111700Z 05014KT 9999 SCT017 FEW020 17/06 Q1032

TAF

Not found

Frequencies

Tower 118.50 MHz ORURO TWR
Warning: Do not use this data for real-world aviation or navigation. No guarantee of current accuracy is given.